Etusivu
METAR-TAF:

METAR-TAF

Lentoasemat :

Uppsala, Ruotsi

Leveyspiiri: 59-53N, Pituuspiiri: 017-36E, korkeus merenpinnasta: 21 m

Tämänhetkinen sää

Tämä raportti tehtiin 39 minuuttia sitten, kello 00.20 UTC
Tuuli 4 kn lounaasta
Lämpötila 14°C
Kosteus 67%
Ilmanpaine 1007 hPa
Näkyvyys 10 km tai enemmän

METAR: ESCM 220020Z AUTO 22004KT 9999 NCD 14/08 Q1007

Aika: 02:59 (00:59 UTC)


TAF: puuttuu

Säähavainnot ja -ennusteet yli 4000 lentoasemalta (METAR- ja TAF-raportit).

Käytössä olevat sääasemat on merkitty karttaan keltaisilla ja punaisilla pisteillä.

Aseta hiiri pisteen päälle nähdäksesi sääaseman nimen.

Klikkaa sitten nähdäksesi säähavainnot ja -ennusteet.

Kartan vaihtaminen: klikkaa mustalla rastilla varustettuja vihreitä pisteitä, niin voit zoomata sisään; viivalla varustettua vihreää pistettä, niin voit zoomata ulos tai vihreitä nuolia, niin pääset viereisille kartoille.


METAR-TAF: